Lupus, Missouri
Current Conditions -  °F | °C
As of 3:54 AM on Sunday 23 Nov 2014 (Local Time) from KCOU Reporting Station
Overcast Overcast  
Wind Chill: 54°   Ceiling: 9000
Heat Index: 54°   Visibility: 10mi
Dew Point: 50°   Wind: 13mph
Humidity: 86%   Direction: 150°SSE
Pressure: 29.66"   Gusts: NA
Location:  38.7914°N, 92.4851°W
Report Text: KCOU 230954Z AUTO 15011KT 10SM OVC090 12/10 A2966 RMK AO2 SLP042 T01220100 $
Loading
Personal Weather Stations






























Interactive Weather Map New forecast layout! Learn more

10-Day Weather Forecast

Advertisements
Track Severe Weather on mobile